Terminal Aerodrome Forecast
Issued by NWS Shreveport, LA

Home | Current Version | Previous Version | Text Only | Print | Product List | Glossary On
Versions: 1 2 3 4 5 6 7 8 9 10 11 12 13 14 15 16 17 18
000
FTUS44 KSHV 252323
TAFMLU
TAF
KMLU 252323Z 2600/2624 15010KT P6SM -SHRA OVC045
     FM260300 16010KT 4SM TSRA BR OVC035CB
     FM261000 17008KT 5SM -SHRA VCTS OVC020CB
     FM261200 16008KT 5SM BR OVC015
     FM261500 19008KT P6SM OVC100
     FM261800 22010KT P6SM SCT035=

USA.gov is the U.S. government's official web portal to all federal, state and local government web resources and services.